Time;durP1;ratioP1;P1;durP2;ratioP2;P2;SDS_P1;SDS_P2;PMS_P1;PMS_P2;Temp;Humidity;BMP_temperature;BMP_pressure;BME280_temperature;BME280_humidity;BME280_pressure;Samples;Min_cycle;Max_cycle;Signal;HPM_P1;HPM_P2
2022/04/14 00:00:29;;;;;;;17.23;13.13;;;;;;;14.25;92.94;100150.94;4981764;28;20282;-59
2022/04/14 00:02:55;;;;;;;20.87;12.97;;;;;;;14.24;93.55;100155.31;4991819;28;20250;-59
2022/04/14 00:05:21;;;;;;;14.97;12.30;;;;;;;14.22;93.24;100156.34;4991601;28;20521;-59
2022/04/14 00:07:47;;;;;;;18.00;13.10;;;;;;;14.20;93.30;100148.66;4991815;28;20203;-59
2022/04/14 00:10:14;;;;;;;19.00;13.57;;;;;;;14.17;93.48;100147.13;4984146;28;20175;-59
2022/04/14 00:12:40;;;;;;;15.77;13.20;;;;;;;14.28;92.78;100161.09;5006672;28;20234;-59
2022/04/14 00:15:06;;;;;;;17.63;13.03;;;;;;;14.35;92.50;100160.56;4991254;28;20184;-60
2022/04/14 00:17:33;;;;;;;17.23;12.93;;;;;;;14.23;93.06;100153.63;4991465;28;20179;-59
2022/04/14 00:19:59;;;;;;;15.67;13.10;;;;;;;14.30;92.26;100157.47;4991559;28;20186;-59
2022/04/14 00:22:24;;;;;;;21.27;13.00;;;;;;;14.34;92.16;100153.72;4982076;28;20317;-58
2022/04/14 00:24:49;;;;;;;14.50;13.10;;;;;;;14.24;91.87;100155.31;4992548;28;20230;-59
2022/04/14 00:27:18;;;;;;;15.97;12.53;;;;;;;14.26;91.75;100150.00;4992816;28;20525;-59
2022/04/14 00:29:43;;;;;;;14.27;12.43;;;;;;;14.28;91.54;100159.31;4992832;28;20494;-59
2022/04/14 00:32:09;;;;;;;13.60;11.50;;;;;;;14.24;91.73;100152.72;4997660;28;20234;-59
2022/04/14 00:34:34;;;;;;;17.57;12.23;;;;;;;14.31;91.74;100163.44;4992413;28;20698;-59
2022/04/14 00:36:59;;;;;;;13.43;12.03;;;;;;;14.32;91.02;100160.75;4992740;28;20186;-59
2022/04/14 00:39:25;;;;;;;16.53;11.93;;;;;;;14.18;91.46;100153.13;4992722;28;20202;-61
2022/04/14 00:41:50;;;;;;;14.10;10.93;;;;;;;14.26;91.77;100153.41;4996184;28;20229;-59
2022/04/14 00:44:15;;;;;;;17.90;12.30;;;;;;;14.28;91.22;100151.56;4991670;28;20579;-61
2022/04/14 00:46:40;;;;;;;15.23;12.80;;;;;;;14.15;91.99;100149.00;4992273;28;20631;-59
2022/04/14 00:49:06;;;;;;;14.73;11.63;;;;;;;14.17;91.93;100147.13;4992572;28;20732;-60
2022/04/14 00:51:31;;;;;;;16.60;12.10;;;;;;;14.14;91.98;100151.66;4984472;28;20682;-59
2022/04/14 00:53:56;;;;;;;13.57;11.70;;;;;;;14.04;92.36;100152.31;4990427;28;20189;-60
2022/04/14 00:56:22;;;;;;;15.43;11.97;;;;;;;14.08;92.36;100159.84;4992465;28;20266;-60
2022/04/14 00:58:48;;;;;;;17.17;12.10;;;;;;;13.98;93.02;100168.25;4991138;28;20286;-60
2022/04/14 01:01:13;;;;;;;16.23;11.27;;;;;;;13.96;93.45;100171.88;4974529;28;20255;-58
2022/04/14 01:03:39;;;;;;;13.20;11.07;;;;;;;13.87;94.40;100174.13;4991295;28;20580;-59
2022/04/14 01:06:04;;;;;;;13.90;11.10;;;;;;;13.75;95.01;100174.97;5008714;28;20871;-60
2022/04/14 01:08:35;;;;;;;14.77;11.93;;;;;;;13.74;95.79;100177.66;5010269;28;20213;-59
2022/04/14 01:11:01;;;;;;;13.00;11.60;;;;;;;13.74;95.53;100169.91;4995920;28;20318;-60
2022/04/14 01:13:27;;;;;;;13.77;11.03;;;;;;;13.70;95.83;100175.25;5001860;28;20696;-59
2022/04/14 01:15:59;;;;;;;14.50;10.80;;;;;;;13.67;95.41;100174.66;5009914;28;20178;-58
2022/04/14 01:18:26;;;;;;;15.10;10.90;;;;;;;13.68;95.98;100184.03;5012007;28;20185;-59
2022/04/14 01:20:58;;;;;;;14.73;10.97;;;;;;;13.49;96.63;100181.84;4997142;28;20647;-58
2022/04/14 01:23:39;;;;;;;19.07;11.53;;;;;;;13.48;96.97;100178.47;5000246;28;20202;-58
2022/04/14 01:26:05;;;;;;;15.50;12.53;;;;;;;13.52;97.00;100185.06;5011494;28;20638;-59
2022/04/14 01:28:30;;;;;;;16.87;11.97;;;;;;;13.41;97.26;100192.69;5011598;28;20257;-59
2022/04/14 01:30:55;;;;;;;17.77;11.13;;;;;;;13.33;98.56;100192.31;5001354;28;20594;-59
2022/04/14 01:33:21;;;;;;;14.53;11.80;;;;;;;13.37;98.34;100191.19;5010683;28;20190;-59
2022/04/14 01:35:46;;;;;;;17.00;11.73;;;;;;;13.38;97.88;100187.72;5011793;28;20178;-59
2022/04/14 01:38:12;;;;;;;14.33;12.30;;;;;;;13.36;98.35;100194.72;5011250;28;20258;-59
2022/04/14 01:40:37;;;;;;;13.90;10.63;;;;;;;13.27;99.13;100196.13;4998634;28;20642;-59
2022/04/14 01:43:03;;;;;;;15.83;11.13;;;;;;;13.24;99.79;100201.50;4976471;28;20195;-59
2022/04/14 01:45:28;;;;;;;12.67;10.87;;;;;;;13.22;99.10;100193.00;4992341;28;20171;-59
2022/04/14 01:47:53;;;;;;;15.27;11.90;;;;;;;13.02;100.00;100202.03;4991936;28;20203;-58
2022/04/14 01:50:19;;;;;;;13.93;11.70;;;;;;;13.15;100.00;100202.09;4981908;28;20199;-59
2022/04/14 01:52:44;;;;;;;13.83;11.40;;;;;;;13.23;99.52;100202.41;4989203;28;20661;-59
2022/04/14 01:55:10;;;;;;;13.43;11.27;;;;;;;13.25;98.97;100208.31;4991521;28;20203;-61
2022/04/14 01:57:35;;;;;;;17.90;11.93;;;;;;;13.22;98.98;100200.75;4991863;28;20172;-60
2022/04/14 02:00:04;;;;;;;16.27;10.77;;;;;;;13.16;99.39;100214.06;4991648;28;20176;-60
2022/04/14 02:02:29;;;;;;;12.97;10.37;;;;;;;13.29;98.51;100209.78;4964261;28;20596;-59
2022/04/14 02:04:55;;;;;;;16.03;11.30;;;;;;;13.21;98.65;100209.47;4989993;28;20277;-60
2022/04/14 02:07:20;;;;;;;14.93;10.73;;;;;;;13.05;100.00;100214.78;4990606;28;20186;-58
2022/04/14 02:09:45;;;;;;;13.37;11.00;;;;;;;13.00;100.00;100214.19;4991741;28;20199;-59
2022/04/14 02:12:12;;;;;;;20.40;12.07;;;;;;;12.99;100.00;100215.97;4996576;28;20219;-60
2022/04/14 02:14:38;;;;;;;14.03;11.10;;;;;;;13.06;100.00;100213.81;4990978;28;20218;-60
2022/04/14 02:17:04;;;;;;;16.73;11.80;;;;;;;13.07;100.00;100211.16;4994025;28;20183;-60
2022/04/14 02:19:29;;;;;;;13.30;11.23;;;;;;;13.10;100.00;100215.31;4993947;28;20195;-59
2022/04/14 02:21:58;;;;;;;14.97;11.10;;;;;;;13.11;99.56;100216.13;4999006;28;20764;-61
2022/04/14 02:24:24;;;;;;;16.20;11.30;;;;;;;13.22;98.75;100211.09;4993328;28;20697;-60
2022/04/14 02:26:49;;;;;;;14.90;11.03;;;;;;;13.13;99.33;100216.84;4995144;28;20195;-60
2022/04/14 02:29:14;;;;;;;15.00;11.37;;;;;;;12.88;100.00;100215.81;4994963;28;20672;-60
2022/04/14 02:31:40;;;;;;;12.73;10.13;;;;;;;12.91;100.00;100221.63;4997393;28;20231;-61
2022/04/14 02:34:05;;;;;;;12.90;10.40;;;;;;;12.89;100.00;100218.28;4997131;28;20179;-60
2022/04/14 02:36:30;;;;;;;15.57;10.10;;;;;;;12.86;100.00;100220.25;4994811;28;20208;-61
2022/04/14 02:38:55;;;;;;;14.83;11.67;;;;;;;12.82;100.00;100221.38;4992833;28;20186;-60
2022/04/14 02:41:21;;;;;;;15.60;11.00;;;;;;;12.56;100.00;100226.38;4983867;28;20224;-60
2022/04/14 02:43:47;;;;;;;14.30;10.90;;;;;;;12.31;100.00;100225.25;4994009;28;20210;-60
2022/04/14 02:46:13;;;;;;;15.43;10.87;;;;;;;12.42;100.00;100233.19;4994460;28;20561;-60
2022/04/14 02:48:38;;;;;;;12.87;10.73;;;;;;;12.47;100.00;100230.34;4994772;28;20199;-59
2022/04/14 02:51:03;;;;;;;13.73;10.83;;;;;;;12.37;100.00;100236.97;4978264;28;20230;-59
2022/04/14 02:53:29;;;;;;;13.00;10.50;;;;;;;12.37;100.00;100235.22;4983337;28;20222;-60
2022/04/14 02:55:54;;;;;;;12.07;10.57;;;;;;;12.37;100.00;100235.22;4974673;28;20254;-60
2022/04/14 02:58:19;;;;;;;13.20;11.17;;;;;;;12.25;100.00;100236.78;4975611;28;20191;-60
2022/04/14 03:00:44;;;;;;;12.70;10.03;;;;;;;12.35;100.00;100241.38;4960301;28;20296;-60
2022/04/14 03:03:10;;;;;;;14.47;11.37;;;;;;;12.26;100.00;100242.78;4982204;28;20191;-61
2022/04/14 03:05:35;;;;;;;15.60;11.57;;;;;;;12.30;100.00;100243.41;4994340;28;20223;-60
2022/04/14 03:08:00;;;;;;;16.57;13.00;;;;;;;12.24;100.00;100247.19;4994100;28;20269;-60
2022/04/14 03:10:26;;;;;;;14.33;11.03;;;;;;;12.23;100.00;100248.09;4983892;28;20226;-61
2022/04/14 03:12:51;;;;;;;13.37;11.37;;;;;;;12.25;100.00;100239.38;4993394;28;20175;-61
2022/04/14 03:15:17;;;;;;;17.37;12.30;;;;;;;12.21;100.00;100237.88;4982333;28;20186;-61
2022/04/14 03:17:43;;;;;;;16.97;13.00;;;;;;;12.39;100.00;100232.53;4978924;28;20653;-61
2022/04/14 03:20:10;;;;;;;15.60;12.93;;;;;;;12.44;100.00;100238.28;4982572;28;20679;-61
2022/04/14 03:22:36;;;;;;;15.90;13.63;;;;;;;12.56;100.00;100247.00;4977767;28;20187;-62
2022/04/14 03:25:03;;;;;;;14.67;13.03;;;;;;;12.56;100.00;100244.44;4991834;28;20269;-59
2022/04/14 03:27:29;;;;;;;15.90;14.03;;;;;;;12.49;100.00;100240.56;4993571;28;20203;-59
2022/04/14 03:29:54;;;;;;;18.97;14.17;;;;;;;12.54;100.00;100252.28;4993832;28;20179;-60
2022/04/14 03:32:22;;;;;;;17.20;15.20;;;;;;;12.56;100.00;100247.81;4946635;28;20616;-61
2022/04/14 03:34:47;;;;;;;17.80;15.40;;;;;;;12.42;100.00;100263.31;4992901;28;20194;-60
2022/04/14 03:37:12;;;;;;;18.43;14.90;;;;;;;12.48;100.00;100249.22;4998908;28;20623;-60
2022/04/14 03:39:38;;;;;;;17.50;15.07;;;;;;;12.51;100.00;100254.19;4993506;28;20191;-60
2022/04/14 03:42:03;;;;;;;19.50;14.67;;;;;;;12.53;100.00;100263.50;4982234;28;20223;-60
2022/04/14 03:44:29;;;;;;;20.10;14.37;;;;;;;12.65;100.00;100251.63;4992946;28;20635;-59
2022/04/14 03:46:54;;;;;;;18.73;14.90;;;;;;;12.69;100.00;100252.25;4993634;28;20175;-60
2022/04/14 03:49:19;;;;;;;21.67;15.30;;;;;;;12.65;100.00;100255.94;4993508;28;20658;-60
2022/04/14 03:51:44;;;;;;;17.73;15.00;;;;;;;12.59;100.00;100254.56;4971494;28;20227;-60
2022/04/14 03:54:10;;;;;;;21.63;16.37;;;;;;;12.56;100.00;100262.50;4990936;28;20184;-60
2022/04/14 03:56:35;;;;;;;18.53;15.07;;;;;;;12.56;100.00;100265.88;4993448;28;20180;-60
2022/04/14 03:59:00;;;;;;;17.13;15.23;;;;;;;12.52;100.00;100272.16;4993274;28;20689;-59
2022/04/14 04:01:25;;;;;;;17.37;15.60;;;;;;;12.43;100.00;100272.72;4982612;28;20231;-59
2022/04/14 04:03:51;;;;;;;18.17;16.13;;;;;;;12.30;100.00;100275.19;4991944;28;20210;-60
2022/04/14 04:06:16;;;;;;;18.13;14.97;;;;;;;12.29;100.00;100263.22;4993593;28;20642;-61
2022/04/14 04:08:41;;;;;;;21.43;16.83;;;;;;;12.37;100.00;100273.09;4992980;28;20218;-60
2022/04/14 04:11:07;;;;;;;18.37;15.83;;;;;;;12.49;100.00;100274.94;4991133;28;20234;-60
2022/04/14 04:13:32;;;;;;;19.90;16.17;;;;;;;12.50;100.00;100270.59;4999747;28;20182;-60
2022/04/14 04:15:57;;;;;;;21.80;16.67;;;;;;;12.55;100.00;100271.16;4992701;28;20183;-59
2022/04/14 04:18:22;;;;;;;18.23;16.23;;;;;;;12.62;100.00;100277.59;4991578;28;20194;-60
2022/04/14 04:20:48;;;;;;;20.73;18.57;;;;;;;12.64;100.00;100269.75;4988539;28;20229;-60
2022/04/14 04:23:13;;;;;;;23.37;18.37;;;;;;;12.62;100.00;100272.44;5001580;28;20274;-61
2022/04/14 04:25:39;;;;;;;26.23;18.93;;;;;;;12.64;100.00;100280.94;4992819;28;20191;-59
2022/04/14 04:28:05;;;;;;;24.27;18.00;;;;;;;12.65;100.00;100274.00;4992319;28;20215;-60
2022/04/14 04:30:30;;;;;;;22.40;17.27;;;;;;;12.61;100.00;100275.13;4986059;28;20223;-60
2022/04/14 04:32:55;;;;;;;21.90;18.37;;;;;;;12.58;100.00;100278.72;4974914;28;20816;-60
2022/04/14 04:35:20;;;;;;;22.20;19.20;;;;;;;12.52;100.00;100287.66;4990824;28;20202;-60
2022/04/14 04:37:46;;;;;;;19.83;17.73;;;;;;;12.57;100.00;100289.97;4990891;28;20694;-63
2022/04/14 04:40:12;;;;;;;21.60;18.53;;;;;;;12.57;100.00;100289.97;4982201;28;20180;-62
2022/04/14 04:42:37;;;;;;;21.03;18.60;;;;;;;12.56;100.00;100296.03;5006696;28;20642;-61
2022/04/14 04:45:02;;;;;;;23.67;18.30;;;;;;;12.52;100.00;100299.72;4990764;28;20171;-61
2022/04/14 04:47:28;;;;;;;23.57;19.40;;;;;;;12.51;100.00;100292.91;4992643;28;20172;-61
2022/04/14 04:49:53;;;;;;;24.33;19.60;;;;;;;12.55;100.00;100299.53;4990958;28;20287;-61
2022/04/14 04:52:18;;;;;;;23.50;20.83;;;;;;;12.64;100.00;100304.16;4982185;28;20662;-60
2022/04/14 04:54:44;;;;;;;26.27;20.20;;;;;;;12.65;100.00;100307.56;4992129;28;20227;-61
2022/04/14 04:57:09;;;;;;;23.50;20.93;;;;;;;12.62;100.00;100303.41;4992631;28;20180;-60
2022/04/14 04:59:35;;;;;;;23.90;21.13;;;;;;;12.61;100.00;100313.84;4991208;28;20191;-61
2022/04/14 05:02:00;;;;;;;25.57;21.70;;;;;;;12.65;100.00;100320.47;4968002;28;20227;-60
2022/04/14 05:04:25;;;;;;;26.07;21.23;;;;;;;12.70;100.00;100315.84;4991940;28;20321;-60
2022/04/14 05:06:51;;;;;;;24.90;19.27;;;;;;;12.68;100.00;100317.72;4992541;28;20179;-60
2022/04/14 05:09:16;;;;;;;26.63;20.23;;;;;;;12.67;100.00;100322.03;4974599;28;20203;-60
2022/04/14 05:11:42;;;;;;;26.37;20.37;;;;;;;12.78;100.00;100318.00;4995115;28;20238;-60
2022/04/14 05:14:08;;;;;;;23.53;20.97;;;;;;;12.91;100.00;100318.88;4985482;28;20635;-61
2022/04/14 05:16:33;;;;;;;29.47;21.90;;;;;;;13.01;100.00;100322.59;4971615;28;20190;-61
2022/04/14 05:18:59;;;;;;;23.23;20.10;;;;;;;13.16;100.00;100325.13;4971602;28;20192;-61
2022/04/14 05:21:24;;;;;;;29.27;21.53;;;;;;;13.11;100.00;100332.34;4973135;28;20594;-60
2022/04/14 05:23:49;;;;;;;25.73;22.07;;;;;;;13.29;100.00;100332.97;4970694;28;20184;-59
2022/04/14 05:26:15;;;;;;;23.47;21.00;;;;;;;13.43;100.00;100337.28;4972827;28;20266;-60
2022/04/14 05:28:40;;;;;;;25.53;21.93;;;;;;;13.40;100.00;100331.38;4972986;28;20191;-60
2022/04/14 05:31:05;;;;;;;23.50;21.07;;;;;;;13.65;99.33;100329.84;4966786;28;20289;-59
2022/04/14 05:33:31;;;;;;;26.87;21.67;;;;;;;13.66;98.37;100328.91;4998464;28;20183;-60
2022/04/14 05:35:56;;;;;;;23.17;20.77;;;;;;;13.89;96.68;100324.00;4990647;28;20187;-59
2022/04/14 05:38:23;;;;;;;23.03;20.53;;;;;;;14.11;95.24;100331.19;5006521;28;20174;-60
2022/04/14 05:40:48;;;;;;;25.10;21.27;;;;;;;14.37;93.74;100326.06;4990577;28;20296;-60
2022/04/14 05:43:22;;;;;;;23.27;20.70;;;;;;;14.46;92.10;100327.19;4990887;28;20241;-61
2022/04/14 05:45:48;;;;;;;22.80;20.17;;;;;;;14.71;90.38;100330.75;5009507;28;20192;-60
2022/04/14 05:48:15;;;;;;;23.70;20.40;;;;;;;14.80;88.25;100333.53;5009131;28;20190;-61
2022/04/14 05:50:45;;;;;;;22.10;19.80;;;;;;;14.88;88.22;100335.59;5002846;28;20226;-61
2022/04/14 05:53:11;;;;;;;21.93;19.60;;;;;;;15.04;87.66;100334.53;4995334;28;20265;-61
2022/04/14 05:55:37;;;;;;;23.67;19.07;;;;;;;15.15;86.35;100332.03;5006479;28;20213;-60
2022/04/14 05:58:03;;;;;;;22.00;19.77;;;;;;;15.37;84.83;100333.09;5011866;28;20234;-61
2022/04/14 06:00:33;;;;;;;24.43;19.40;;;;;;;15.44;84.05;100334.31;5001172;28;20234;-60
2022/04/14 06:02:59;;;;;;;22.23;18.97;;;;;;;15.57;83.39;100331.69;4999784;28;20183;-61
2022/04/14 06:05:30;;;;;;;25.93;20.47;;;;;;;15.40;83.72;100330.28;5004585;28;20708;-61
2022/04/14 06:07:55;;;;;;;22.07;19.80;;;;;;;15.56;83.52;100332.63;5012920;28;20198;-61
2022/04/14 06:10:23;;;;;;;22.10;19.63;;;;;;;15.68;82.98;100334.34;5001590;28;20183;-60
2022/04/14 06:12:49;;;;;;;24.90;20.50;;;;;;;15.72;82.54;100337.53;5003854;28;20289;-60
2022/04/14 06:15:14;;;;;;;24.50;19.20;;;;;;;15.80;81.93;100340.38;5011285;28;20174;-61
2022/04/14 06:17:40;;;;;;;22.03;18.67;;;;;;;15.84;81.61;100335.81;5012617;28;20186;-61
2022/04/14 06:20:06;;;;;;;24.53;20.37;;;;;;;15.82;81.39;100339.34;5003747;28;20228;-63
2022/04/14 06:22:37;;;;;;;24.43;19.87;;;;;;;15.65;82.47;100339.72;5013146;28;20178;-60
2022/04/14 06:25:06;;;;;;;22.57;20.07;;;;;;;15.68;82.10;100344.69;5011902;28;20174;-61
2022/04/14 06:27:32;;;;;;;22.63;20.27;;;;;;;15.67;83.11;100337.84;5012752;28;20215;-61
2022/04/14 06:29:58;;;;;;;26.30;20.03;;;;;;;15.77;82.31;100341.44;5001266;28;20221;-60
2022/04/14 06:32:23;;;;;;;23.77;21.20;;;;;;;15.72;82.58;100343.53;4989148;28;20230;-62
2022/04/14 06:34:48;;;;;;;21.80;19.17;;;;;;;15.63;83.53;100339.84;5013484;28;20603;-61
2022/04/14 06:37:14;;;;;;;24.33;19.37;;;;;;;15.60;84.16;100344.41;5014063;28;20650;-63
2022/04/14 06:39:39;;;;;;;24.70;19.17;;;;;;;15.69;83.92;100338.59;5012654;28;20183;-62
2022/04/14 06:42:05;;;;;;;21.83;19.50;;;;;;;15.71;83.80;100349.66;5002756;28;20363;-61
2022/04/14 06:44:30;;;;;;;27.57;20.50;;;;;;;15.60;83.31;100350.44;5013483;28;20190;-61
2022/04/14 06:46:55;;;;;;;23.73;18.90;;;;;;;15.58;83.51;100351.47;5015510;28;20216;-75
2022/04/14 06:49:21;;;;;;;25.23;21.67;;;;;;;15.45;85.42;100351.53;5014979;28;20199;-77
2022/04/14 06:51:46;;;;;;;22.37;19.27;;;;;;;15.52;85.29;100355.34;5003480;28;20737;-74
2022/04/14 06:54:11;;;;;;;27.47;20.73;;;;;;;15.40;85.05;100351.84;4992758;28;20177;-69
2022/04/14 06:56:37;;;;;;;21.90;18.17;;;;;;;15.41;85.30;100356.09;4994237;28;20544;-69
2022/04/14 06:59:02;;;;;;;21.17;18.83;;;;;;;15.61;83.97;100362.44;5004387;28;20201;-70
2022/04/14 07:01:27;;;;;;;25.50;18.70;;;;;;;15.65;83.90;100368.25;4975961;28;20684;-72
2022/04/14 07:03:53;;;;;;;22.00;19.60;;;;;;;15.57;82.86;100368.00;4993629;28;20178;-73
2022/04/14 07:06:18;;;;;;;29.30;21.50;;;;;;;15.60;83.39;100371.19;5014555;28;20183;-73
2022/04/14 07:08:44;;;;;;;22.80;20.00;;;;;;;15.36;83.95;100373.75;5009001;28;20264;-73
2022/04/14 07:11:09;;;;;;;22.27;19.10;;;;;;;15.47;84.57;100373.81;5003024;28;20318;-71
2022/04/14 07:13:34;;;;;;;21.50;18.97;;;;;;;15.59;83.57;100381.66;5013293;28;20187;-71
2022/04/14 07:16:00;;;;;;;25.53;20.77;;;;;;;15.52;82.79;100381.28;5003602;28;20328;-70
2022/04/14 07:18:26;;;;;;;22.40;19.93;;;;;;;15.74;82.55;100383.16;5001000;28;20190;-71
2022/04/14 07:20:52;;;;;;;23.50;18.53;;;;;;;15.78;81.48;100389.78;5004454;28;20226;-70
2022/04/14 07:23:18;;;;;;;26.23;20.60;;;;;;;15.64;80.86;100383.00;5013094;28;20248;-72
2022/04/14 07:25:44;;;;;;;22.20;19.40;;;;;;;15.84;79.92;100391.16;5014521;28;20181;-70
2022/04/14 07:28:10;;;;;;;23.63;21.13;;;;;;;15.74;79.81;100393.53;5002105;28;20744;-73
2022/04/14 07:30:35;;;;;;;25.33;20.83;;;;;;;15.95;79.29;100395.53;4962390;28;20318;-74
2022/04/14 07:33:01;;;;;;;26.30;20.03;;;;;;;16.22;77.03;100390.09;4980895;28;20218;-72
2022/04/14 07:35:26;;;;;;;20.53;18.43;;;;;;;16.48;75.89;100391.72;4994563;28;20183;-72
2022/04/14 07:37:52;;;;;;;24.47;18.93;;;;;;;16.72;75.19;100391.63;4994077;28;20267;-74
2022/04/14 07:40:18;;;;;;;21.40;18.80;;;;;;;17.01;72.85;100396.41;4984457;28;20183;-75
2022/04/14 07:42:46;;;;;;;23.90;18.93;;;;;;;17.19;71.13;100391.53;4992842;28;20282;-73
2022/04/14 07:45:15;;;;;;;20.33;18.17;;;;;;;17.21;71.23;100393.06;4993895;28;20179;-76
2022/04/14 07:47:44;;;;;;;19.97;17.63;;;;;;;17.05;69.69;100400.41;4994286;28;20202;-72
2022/04/14 07:50:14;;;;;;;23.77;19.03;;;;;;;17.18;69.39;100401.13;4982386;28;20180;-73
2022/04/14 07:52:56;;;;;;;19.07;17.10;;;;;;;17.50;68.50;100402.13;4989801;28;20212;-72
2022/04/14 07:55:27;;;;;;;19.80;16.43;;;;;;;17.81;66.27;100404.91;4985836;28;20195;-73
2022/04/14 07:57:55;;;;;;;18.70;16.60;;;;;;;17.86;66.48;100406.19;4992819;28;20179;-71
2022/04/14 08:00:21;;;;;;;22.43;17.10;;;;;;;17.39;67.14;100413.38;4982511;28;20254;-69
2022/04/14 08:02:56;;;;;;;20.10;15.93;;;;;;;17.57;67.16;100417.13;4992514;28;20183;-70
2022/04/14 08:05:38;;;;;;;21.63;16.07;;;;;;;17.55;65.98;100423.41;4998894;28;20245;-70
2022/04/14 08:08:06;;;;;;;17.60;15.77;;;;;;;17.39;66.81;100424.63;5013270;28;20199;-71
2022/04/14 08:10:31;;;;;;;16.67;14.30;;;;;;;17.43;65.96;100431.22;5003366;28;20230;-71
2022/04/14 08:12:57;;;;;;;17.60;14.70;;;;;;;16.91;67.74;100441.28;4998023;28;20529;-71
2022/04/14 08:15:23;;;;;;;24.93;15.17;;;;;;;17.17;68.98;100440.25;5012406;28;20633;-72
2022/04/14 08:17:49;;;;;;;16.93;14.43;;;;;;;17.59;65.84;100430.84;5013479;28;20171;-72
2022/04/14 08:20:16;;;;;;;18.00;13.77;;;;;;;17.66;64.78;100433.81;5001670;28;20634;-69
2022/04/14 08:22:59;;;;;;;18.27;14.80;;;;;;;17.14;66.62;100440.47;5012026;28;20638;-70
2022/04/14 08:25:25;;;;;;;17.37;14.70;;;;;;;17.19;67.10;100438.31;4997414;28;20550;-70
2022/04/14 08:27:53;;;;;;;17.73;15.10;;;;;;;17.01;68.61;100441.41;5004298;28;20252;-70
2022/04/14 08:30:20;;;;;;;16.97;14.97;;;;;;;16.94;69.13;100445.41;5001326;28;20302;-70
2022/04/14 08:32:47;;;;;;;20.30;16.30;;;;;;;16.62;73.71;100449.47;4991611;28;20201;-71
2022/04/14 08:35:14;;;;;;;18.13;16.27;;;;;;;16.70;75.18;100454.06;4992990;28;20179;-71
2022/04/14 08:37:41;;;;;;;18.77;15.50;;;;;;;16.51;74.03;100454.63;4992298;28;20183;-72
2022/04/14 08:40:09;;;;;;;19.67;16.97;;;;;;;16.66;74.97;100463.06;4983007;28;20206;-71
2022/04/14 08:42:42;;;;;;;19.17;16.83;;;;;;;16.49;73.61;100466.88;4976342;28;20274;-71
2022/04/14 08:45:11;;;;;;;25.50;18.40;;;;;;;16.56;77.41;100464.66;4993770;28;20179;-71
2022/04/14 08:47:39;;;;;;;24.47;17.67;;;;;;;16.69;74.74;100451.59;5012876;28;20558;-70
2022/04/14 08:50:06;;;;;;;22.10;18.03;;;;;;;16.82;73.92;100457.53;5001322;28;20647;-70
2022/04/14 08:52:35;;;;;;;20.70;17.23;;;;;;;16.80;72.91;100456.00;5003382;28;20186;-69
2022/04/14 08:55:05;;;;;;;24.37;18.53;;;;;;;16.51;75.18;100458.97;4992881;28;20646;-70
2022/04/14 08:57:32;;;;;;;20.53;16.63;;;;;;;16.30;74.31;100464.81;4992984;28;20698;-71
2022/04/14 08:59:59;;;;;;;25.40;16.53;;;;;;;16.17;77.61;100466.66;4998221;28;20179;-67
2022/04/14 09:02:25;;;;;;;21.93;17.63;;;;;;;16.33;82.10;100474.16;4977958;28;20329;-67
2022/04/14 09:04:51;;;;;;;19.10;16.87;;;;;;;16.48;79.99;100470.41;5010902;28;20239;-69
2022/04/14 09:07:16;;;;;;;19.03;16.83;;;;;;;16.27;79.75;100473.66;5012237;28;20191;-72
2022/04/14 09:09:42;;;;;;;18.63;16.57;;;;;;;16.11;83.97;100473.09;5011717;28;20206;-75
2022/04/14 09:12:09;;;;;;;22.30;17.00;;;;;;;15.93;83.25;100470.88;5001161;28;20584;-74
2022/04/14 09:14:35;;;;;;;21.87;17.77;;;;;;;15.81;85.49;100475.16;5012306;28;20183;-75
2022/04/14 09:17:02;;;;;;;20.60;18.17;;;;;;;15.83;86.37;100480.25;5011439;28;20626;-75
2022/04/14 09:19:31;;;;;;;21.40;18.47;;;;;;;15.79;83.70;100476.22;5011870;28;20269;-78
2022/04/14 09:22:07;;;;;;;20.20;18.13;;;;;;;15.91;84.30;100485.72;4993551;28;20227;-77
2022/04/14 09:24:48;;;;;;;20.83;16.83;;;;;;;15.88;82.62;100478.16;4978315;28;20614;-77
2022/04/14 09:27:27;;;;;;;21.40;16.87;;;;;;;15.89;82.59;100481.56;4977089;28;20306;-73
2022/04/14 09:29:54;;;;;;;22.00;16.87;;;;;;;16.35;78.37;100482.63;4977002;28;20650;-75
2022/04/14 09:32:34;;;;;;;24.03;18.60;;;;;;;16.85;77.07;100474.66;4966258;28;20532;-73
2022/04/14 09:35:15;;;;;;;18.37;15.80;;;;;;;17.60;72.02;100475.91;4997193;28;20217;-75
2022/04/14 09:37:41;;;;;;;17.53;15.33;;;;;;;17.89;68.91;100477.97;5016165;28;20690;-75
2022/04/14 09:40:08;;;;;;;17.33;15.40;;;;;;;17.82;69.17;100480.22;4999521;28;20281;-74
2022/04/14 09:42:37;;;;;;;19.03;15.47;;;;;;;17.74;67.98;100483.44;4996692;28;20183;-72
2022/04/14 09:45:25;;;;;;;18.17;16.27;;;;;;;17.54;67.01;100476.38;4995124;28;20880;-72
2022/04/14 09:47:52;;;;;;;22.27;16.50;;;;;;;17.26;69.80;100484.53;4995640;28;20175;-75
2022/04/14 09:50:35;;;;;;;20.60;17.20;;;;;;;17.17;70.96;100476.63;4988683;28;20322;-75
2022/04/14 09:53:10;;;;;;;19.00;15.63;;;;;;;17.18;69.89;100480.84;4989407;28;20179;-72
2022/04/14 09:55:38;;;;;;;21.43;16.50;;;;;;;17.34;68.51;100480.50;5012407;28;20262;-71
2022/04/14 09:58:21;;;;;;;18.83;16.73;;;;;;;17.15;69.49;100481.09;5015246;28;20256;-72
2022/04/14 10:00:47;;;;;;;19.73;15.47;;;;;;;17.16;70.07;100485.38;5000329;28;20342;-71
2022/04/14 10:03:14;;;;;;;17.40;14.87;;;;;;;16.94;69.56;100477.44;4983067;28;20214;-71
2022/04/14 10:05:40;;;;;;;19.20;15.10;;;;;;;16.52;70.75;100486.59;4996536;28;20302;-73
2022/04/14 10:08:08;;;;;;;19.93;15.53;;;;;;;16.58;71.73;100493.94;4994791;28;20203;-72
2022/04/14 10:10:36;;;;;;;16.77;14.20;;;;;;;16.50;70.91;100485.91;4986073;28;20230;-73
2022/04/14 10:13:06;;;;;;;18.20;13.47;;;;;;;16.67;70.58;100480.28;4987831;28;20167;-72
2022/04/14 10:15:33;;;;;;;14.50;12.73;;;;;;;17.00;69.16;100483.09;5014194;28;20580;-72
2022/04/14 10:18:05;;;;;;;15.23;12.57;;;;;;;17.02;66.47;100479.44;5001945;28;20664;-73
2022/04/14 10:20:30;;;;;;;16.20;11.83;;;;;;;17.38;64.69;100481.94;4987650;28;20359;-71
2022/04/14 10:22:58;;;;;;;11.93;10.03;;;;;;;17.81;62.08;100478.59;4991939;28;20345;-73
2022/04/14 10:25:24;;;;;;;12.97;9.40;;;;;;;18.73;59.05;100476.47;5012898;28;20270;-72
2022/04/14 10:27:52;;;;;;;12.65;10.38;;;;;;;18.85;56.30;100476.31;4994095;28;20437;-68
2022/04/14 10:30:20;;;;;;;10.43;9.17;;;;;;;19.06;55.83;100479.88;4978410;28;20187;-69
2022/04/14 10:32:46;;;;;;;12.33;9.43;;;;;;;19.39;53.47;100486.59;5012544;28;20172;-66
2022/04/14 10:35:12;;;;;;;11.03;9.03;;;;;;;19.60;52.68;100489.13;4975385;28;20184;-66
2022/04/14 10:37:46;;;;;;;10.20;9.07;;;;;;;19.79;51.21;100480.50;4985614;28;20167;-68
2022/04/14 10:40:12;;;;;;;13.53;9.57;;;;;;;19.45;52.87;100485.22;4976688;28;20670;-68
2022/04/14 10:42:40;;;;;;;9.93;8.20;;;;;;;19.02;53.34;100484.50;4983618;28;20266;-67
2022/04/14 10:45:21;;;;;;;12.90;9.67;;;;;;;19.25;53.05;100487.78;4983119;28;20203;-67
2022/04/14 10:47:46;;;;;;;14.10;11.25;;;;;;;19.13;53.87;100496.66;4994995;28;20400;-68
2022/04/14 10:50:38;;;;;;;13.50;11.43;;;;;;;19.09;54.44;100484.81;4984855;28;20589;-68
2022/04/14 10:53:20;;;;;;;12.73;9.60;;;;;;;19.13;55.21;100481.00;4986253;28;20188;-68
2022/04/14 10:55:48;;;;;;;11.27;9.73;;;;;;;19.13;54.25;100479.22;4974984;28;20180;-67
2022/04/14 10:58:48;;;;;;;12.03;10.30;;;;;;;18.83;55.16;100483.41;4975763;28;20176;-67
2022/04/14 11:01:14;;;;;;;12.10;10.17;;;;;;;18.87;55.00;100484.78;4964457;28;20710;-68
2022/04/14 11:03:53;;;;;;;10.03;9.07;;;;;;;18.96;54.70;100483.22;4974579;28;20191;-66
2022/04/14 11:07:01;;;;;;;11.50;10.03;;;;;;;18.83;54.37;100477.38;4976621;28;20202;-68